createdAt,value
2022-08-03T00:01:54.558Z,31.20
2022-08-03T00:04:33.966Z,31.10
2022-08-03T00:07:05.248Z,30.80
2022-08-03T00:09:36.103Z,30.80
2022-08-03T00:12:07.256Z,30.70
2022-08-03T00:14:38.038Z,30.80
2022-08-03T00:17:08.734Z,30.90
2022-08-03T00:19:41.129Z,30.80
2022-08-03T00:22:12.104Z,30.80
2022-08-03T00:24:42.842Z,30.80
2022-08-03T00:27:16.622Z,30.80
2022-08-03T00:29:57.668Z,30.80
2022-08-03T00:32:32.143Z,30.80
2022-08-03T00:35:08.310Z,30.80
2022-08-03T00:37:41.951Z,30.90
2022-08-03T00:40:14.844Z,30.80
2022-08-03T00:42:53.042Z,30.70
2022-08-03T00:45:27.132Z,30.70
2022-08-03T00:47:58.413Z,30.60
2022-08-03T00:50:33.215Z,30.70
2022-08-03T00:53:04.692Z,30.60
2022-08-03T00:55:35.663Z,30.50
2022-08-03T00:58:07.529Z,30.40
2022-08-03T01:00:41.220Z,30.40
2022-08-03T01:03:13.473Z,30.50
2022-08-03T01:05:55.149Z,30.50
2022-08-03T01:08:37.127Z,30.40
2022-08-03T01:11:13.335Z,30.20
2022-08-03T01:14:03.814Z,30.20
2022-08-03T01:16:55.336Z,30.20
2022-08-03T01:19:43.449Z,30.10
2022-08-03T01:22:34.790Z,30.10
2022-08-03T01:25:11.126Z,30.20
2022-08-03T01:27:54.796Z,30.10
2022-08-03T01:30:30.843Z,30.10
2022-08-03T01:33:07.196Z,30.10
2022-08-03T01:35:42.101Z,30.10
2022-08-03T01:38:16.282Z,30.10
2022-08-03T01:40:49.778Z,29.80
2022-08-03T01:43:55.217Z,29.80
2022-08-03T01:46:15.672Z,29.80
2022-08-03T01:48:47.605Z,29.70
2022-08-03T01:51:21.089Z,29.60
2022-08-03T01:53:55.568Z,29.50
2022-08-03T01:56:28.616Z,29.30
2022-08-03T01:59:01.562Z,29.30
2022-08-03T02:02:16.076Z,29.20
2022-08-03T02:04:28.698Z,29.30
2022-08-03T02:07:03.120Z,29.20
2022-08-03T02:09:35.004Z,29.10
2022-08-03T02:12:06.450Z,29.00
2022-08-03T02:14:37.861Z,28.90
2022-08-03T02:17:11.323Z,28.80
2022-08-03T02:19:43.343Z,28.70
2022-08-03T02:22:16.916Z,28.80
2022-08-03T02:24:51.161Z,28.70
2022-08-03T02:27:25.084Z,28.60
2022-08-03T02:29:58.950Z,28.60
2022-08-03T02:32:34.460Z,28.50
2022-08-03T02:35:07.843Z,28.40
2022-08-03T02:37:45.063Z,28.40
2022-08-03T02:40:23.100Z,28.30
2022-08-03T02:42:58.793Z,28.20
2022-08-03T02:45:31.500Z,28.10
2022-08-03T02:48:07.746Z,27.90
2022-08-03T02:50:39.516Z,27.80
2022-08-03T02:53:12.400Z,27.70
2022-08-03T02:55:45.826Z,27.50
2022-08-03T02:58:20.044Z,27.40
2022-08-03T03:00:52.615Z,27.30
2022-08-03T03:03:26.410Z,27.20
2022-08-03T03:06:00.441Z,27.10
2022-08-03T03:08:37.128Z,27.00
2022-08-03T03:11:12.269Z,26.90
2022-08-03T03:13:44.943Z,26.80
2022-08-03T03:16:17.167Z,26.70
2022-08-03T03:18:50.631Z,26.70
2022-08-03T03:21:23.691Z,26.50
2022-08-03T03:23:55.294Z,26.40
2022-08-03T03:26:26.205Z,26.30
2022-08-03T03:28:57.320Z,26.30
2022-08-03T03:31:28.219Z,26.20
2022-08-03T03:34:01.736Z,26.30
2022-08-03T03:36:32.499Z,26.30
2022-08-03T03:39:15.444Z,26.20
2022-08-03T03:41:47.229Z,26.20
2022-08-03T03:44:18.375Z,26.10
2022-08-03T03:46:49.308Z,25.90
2022-08-03T03:49:21.872Z,25.80
2022-08-03T03:51:55.392Z,25.70
2022-08-03T03:54:29.051Z,25.60
2022-08-03T03:57:00.288Z,25.50
2022-08-03T03:59:31.047Z,25.40
2022-08-03T04:02:06.943Z,25.30
2022-08-03T04:04:56.561Z,25.20
2022-08-03T04:07:47.216Z,25.00
2022-08-03T04:10:40.584Z,24.90
2022-08-03T04:13:14.947Z,24.90
2022-08-03T04:15:46.405Z,24.80
2022-08-03T04:18:18.973Z,24.70
2022-08-03T04:20:53.094Z,24.60
2022-08-03T04:23:27.304Z,24.50
2022-08-03T04:26:00.334Z,24.40
2022-08-03T04:28:32.598Z,24.40
2022-08-03T04:31:06.197Z,24.40
2022-08-03T04:33:40.784Z,24.40
2022-08-03T04:36:17.433Z,24.30
2022-08-03T04:39:01.925Z,24.30
2022-08-03T04:42:07.244Z,24.20
2022-08-03T04:44:28.355Z,24.10
2022-08-03T04:47:00.660Z,24.00
2022-08-03T04:49:32.789Z,24.00
2022-08-03T04:52:05.614Z,23.90
2022-08-03T04:54:50.031Z,23.90
2022-08-03T04:57:23.078Z,23.80
2022-08-03T05:00:02.203Z,23.70
2022-08-03T05:02:35.852Z,23.70
2022-08-03T05:05:07.897Z,23.60
2022-08-03T05:07:40.295Z,23.50
2022-08-03T05:10:15.900Z,23.40
2022-08-03T05:12:52.500Z,23.30
2022-08-03T05:15:23.330Z,23.30
2022-08-03T05:17:54.023Z,23.20
2022-08-03T05:20:24.903Z,23.10
2022-08-03T05:22:57.251Z,23.10
2022-08-03T05:25:28.277Z,23.10
2022-08-03T05:27:59.099Z,23.10
2022-08-03T05:30:33.996Z,23.00
2022-08-03T05:33:06.179Z,23.00
2022-08-03T05:35:57.623Z,23.00
2022-08-03T05:38:34.832Z,23.00
2022-08-03T05:41:22.096Z,22.80
2022-08-03T05:43:54.916Z,22.80
2022-08-03T05:46:26.367Z,22.70
2022-08-03T05:48:57.233Z,22.80
2022-08-03T05:51:28.561Z,22.70
2022-08-03T05:54:00.896Z,22.60
2022-08-03T05:56:32.675Z,22.50
2022-08-03T05:59:22.481Z,22.40
2022-08-03T06:01:54.232Z,22.30
2022-08-03T06:04:25.216Z,22.20
2022-08-03T06:06:55.963Z,22.20
2022-08-03T06:10:34.547Z,22.20
2022-08-03T06:12:19.236Z,22.20
2022-08-03T06:14:50.117Z,22.10
2022-08-03T06:17:20.925Z,22.10
2022-08-03T06:19:51.645Z,22.00
2022-08-03T06:22:22.911Z,21.90
2022-08-03T06:25:04.102Z,21.90
2022-08-03T06:27:37.095Z,21.80
2022-08-03T06:30:09.387Z,21.80
2022-08-03T06:32:41.661Z,21.80
2022-08-03T06:35:23.148Z,21.70
2022-08-03T06:37:55.348Z,21.60
2022-08-03T06:40:32.085Z,21.50
2022-08-03T06:43:04.013Z,21.50
2022-08-03T06:45:35.330Z,21.40
2022-08-03T06:48:07.499Z,21.50
2022-08-03T06:50:40.101Z,21.40
2022-08-03T06:53:19.740Z,21.30
2022-08-03T06:55:55.212Z,21.30
2022-08-03T06:58:26.205Z,21.20
2022-08-03T07:00:57.200Z,21.10
2022-08-03T07:03:28.024Z,21.00
2022-08-03T07:05:58.762Z,21.00
2022-08-03T07:08:33.468Z,21.00
2022-08-03T07:11:06.985Z,20.90
2022-08-03T07:13:37.707Z,20.90
2022-08-03T07:16:08.929Z,20.90
2022-08-03T07:18:41.788Z,20.80
2022-08-03T07:21:13.500Z,20.70
2022-08-03T07:23:44.341Z,20.60
2022-08-03T07:26:16.699Z,20.60
2022-08-03T07:28:47.456Z,20.60
2022-08-03T07:31:18.139Z,20.50
2022-08-03T07:33:48.922Z,20.50
2022-08-03T07:36:19.639Z,20.40
2022-08-03T07:38:50.402Z,20.40
2022-08-03T07:41:22.737Z,20.30
2022-08-03T07:43:53.504Z,20.30
2022-08-03T07:46:24.240Z,20.30
2022-08-03T07:48:57.586Z,20.30
2022-08-03T07:51:28.339Z,20.30
2022-08-03T07:53:59.937Z,20.20
2022-08-03T07:56:32.539Z,20.10
2022-08-03T07:59:03.833Z,20.10
2022-08-03T08:01:37.457Z,20.10
2022-08-03T08:04:09.474Z,20.10
2022-08-03T08:06:40.322Z,20.00
2022-08-03T08:09:12.401Z,20.00
2022-08-03T08:11:44.769Z,20.00
2022-08-03T08:14:15.502Z,19.90
2022-08-03T08:16:46.236Z,19.80
2022-08-03T08:19:17.587Z,19.80
2022-08-03T08:21:53.244Z,19.70
2022-08-03T08:24:33.116Z,19.80
2022-08-03T08:27:06.940Z,19.70
2022-08-03T08:29:37.665Z,19.70
2022-08-03T08:32:18.885Z,19.60
2022-08-03T08:34:49.861Z,19.60
2022-08-03T08:37:20.632Z,19.50
2022-08-03T08:39:51.388Z,19.40
2022-08-03T08:42:23.724Z,19.40
2022-08-03T08:44:55.061Z,19.30
2022-08-03T08:47:27.930Z,19.30
2022-08-03T08:50:09.650Z,19.30
2022-08-03T08:52:44.222Z,19.30
2022-08-03T08:55:18.037Z,19.30
2022-08-03T08:57:53.173Z,19.30
2022-08-03T09:00:23.896Z,19.30
2022-08-03T09:02:54.660Z,19.30
2022-08-03T09:05:53.700Z,19.20
2022-08-03T09:08:18.187Z,19.20
2022-08-03T09:10:48.964Z,19.20
2022-08-03T09:13:21.534Z,19.10
2022-08-03T09:16:00.533Z,19.00
2022-08-03T09:18:33.296Z,19.00
2022-08-03T09:21:36.008Z,19.00
2022-08-03T09:24:16.526Z,19.00
2022-08-03T09:26:56.585Z,18.80
2022-08-03T09:29:29.069Z,18.80
2022-08-03T09:32:05.176Z,18.80
2022-08-03T09:34:36.290Z,18.80
2022-08-03T09:37:17.373Z,18.70
2022-08-03T09:39:48.341Z,18.80
2022-08-03T09:42:23.779Z,18.80
2022-08-03T09:44:56.860Z,18.70
2022-08-03T09:47:32.485Z,18.70
2022-08-03T09:50:04.508Z,18.70
2022-08-03T09:52:50.198Z,18.70
2022-08-03T09:56:35.490Z,18.60
2022-08-03T09:58:16.196Z,18.50
2022-08-03T10:01:06.965Z,18.50
2022-08-03T10:04:02.683Z,18.50
2022-08-03T10:06:31.479Z,18.60
2022-08-03T10:09:12.833Z,18.50
2022-08-03T10:11:44.251Z,18.40
2022-08-03T10:14:19.838Z,18.40
2022-08-03T10:16:52.716Z,18.30
2022-08-03T10:19:23.452Z,18.30
2022-08-03T10:21:58.420Z,18.30
2022-08-03T10:24:32.232Z,18.20
2022-08-03T10:27:08.223Z,18.10
2022-08-03T10:29:42.041Z,18.10
2022-08-03T10:32:18.552Z,18.10
2022-08-03T10:34:59.793Z,18.10
2022-08-03T10:37:35.330Z,18.10
2022-08-03T10:40:06.838Z,18.00
2022-08-03T10:42:39.558Z,18.00
2022-08-03T10:45:21.657Z,18.00
2022-08-03T10:47:55.486Z,18.00
2022-08-03T10:50:27.776Z,17.90
2022-08-03T10:53:01.894Z,17.90
2022-08-03T10:55:53.204Z,17.80
2022-08-03T10:58:57.545Z,17.80
2022-08-03T11:02:00.866Z,17.80
2022-08-03T11:04:33.629Z,17.60
2022-08-03T11:07:24.780Z,17.50
2022-08-03T11:09:56.590Z,17.50
2022-08-03T11:12:31.406Z,17.60
2022-08-03T11:15:04.951Z,17.50
2022-08-03T11:17:45.813Z,17.50
2022-08-03T11:20:19.790Z,17.40
2022-08-03T11:22:55.233Z,17.40
2022-08-03T11:25:53.155Z,17.40
2022-08-03T11:28:30.648Z,17.40
2022-08-03T11:31:54.062Z,17.40
2022-08-03T11:34:25.263Z,17.40
2022-08-03T11:37:32.985Z,17.30
2022-08-03T11:40:04.587Z,17.30
2022-08-03T11:42:48.824Z,17.20
2022-08-03T11:45:20.703Z,17.20
2022-08-03T11:47:56.427Z,17.10
2022-08-03T11:50:27.248Z,17.00
2022-08-03T11:52:59.625Z,17.00
2022-08-03T11:55:33.231Z,16.90
2022-08-03T11:59:11.319Z,16.80
2022-08-03T12:00:55.213Z,16.90
2022-08-03T12:03:26.001Z,16.90
2022-08-03T12:05:57.398Z,17.00
2022-08-03T12:08:36.734Z,16.90
2022-08-03T12:11:08.829Z,16.90
2022-08-03T12:14:45.690Z,16.80
2022-08-03T12:16:35.245Z,16.80
2022-08-03T12:19:08.875Z,16.80
2022-08-03T12:21:56.761Z,16.80
2022-08-03T12:24:42.452Z,16.80
2022-08-03T12:27:13.469Z,16.70
2022-08-03T12:29:44.252Z,16.70
2022-08-03T12:32:29.858Z,16.70
2022-08-03T12:35:02.242Z,16.70
2022-08-03T12:37:33.434Z,16.70
2022-08-03T12:40:10.794Z,16.70
2022-08-03T12:42:43.100Z,16.60
2022-08-03T12:45:24.607Z,16.50
2022-08-03T12:47:59.682Z,16.50
2022-08-03T12:50:32.464Z,16.50
2022-08-03T12:53:05.393Z,16.50
2022-08-03T12:56:04.388Z,16.40
2022-08-03T12:58:36.716Z,16.40
2022-08-03T13:01:10.627Z,16.40
2022-08-03T13:03:45.838Z,16.40
2022-08-03T13:06:21.989Z,16.40
2022-08-03T13:08:53.704Z,16.30
2022-08-03T13:11:53.594Z,16.30
2022-08-03T13:14:20.155Z,16.30
2022-08-03T13:16:51.630Z,16.30
2022-08-03T13:19:22.357Z,16.30
2022-08-03T13:22:03.633Z,16.30
2022-08-03T13:24:36.233Z,16.30
2022-08-03T13:28:02.454Z,16.40
2022-08-03T13:29:59.894Z,16.40
2022-08-03T13:32:30.678Z,16.40
2022-08-03T13:35:01.593Z,16.50
2022-08-03T13:37:32.992Z,16.40
2022-08-03T13:40:05.493Z,16.40
2022-08-03T13:42:39.004Z,16.40
2022-08-03T13:45:11.370Z,16.40
2022-08-03T13:47:42.139Z,16.30
2022-08-03T13:50:12.903Z,16.30
2022-08-03T13:52:43.672Z,16.40
2022-08-03T13:55:14.642Z,16.40
2022-08-03T13:58:03.905Z,16.40
2022-08-03T14:00:36.279Z,16.40
2022-08-03T14:03:13.729Z,16.50
2022-08-03T14:05:45.416Z,16.50
2022-08-03T14:08:16.246Z,16.50
2022-08-03T14:10:49.469Z,16.50
2022-08-03T14:13:21.884Z,16.50
2022-08-03T14:15:54.246Z,16.50
2022-08-03T14:18:27.784Z,16.50
2022-08-03T14:21:05.562Z,16.50
2022-08-03T14:23:38.311Z,16.60
2022-08-03T14:26:09.786Z,16.60
2022-08-03T14:28:42.129Z,16.70
2022-08-03T14:32:09.047Z,16.70
2022-08-03T14:34:05.580Z,16.80
2022-08-03T14:36:36.612Z,17.00
2022-08-03T14:39:07.490Z,17.20
2022-08-03T14:41:38.380Z,18.00
2022-08-03T14:44:10.740Z,19.30
2022-08-03T14:46:41.507Z,21.30
2022-08-03T14:50:36.511Z,22.40
2022-08-03T14:52:03.496Z,23.50
2022-08-03T14:54:34.228Z,25.30
2022-08-03T14:57:04.988Z,26.60
2022-08-03T14:59:56.711Z,27.10
2022-08-03T15:02:29.178Z,27.90
2022-08-03T15:04:59.934Z,28.30
2022-08-03T15:07:30.649Z,28.80
2022-08-03T15:10:02.290Z,29.10
2022-08-03T15:12:33.260Z,29.20
2022-08-03T15:15:05.646Z,29.90
2022-08-03T15:17:36.344Z,30.30
2022-08-03T15:20:25.439Z,30.90
2022-08-03T15:22:59.768Z,30.80
2022-08-03T15:26:28.550Z,31.30
2022-08-03T15:28:21.330Z,31.30
2022-08-03T15:30:55.464Z,31.30
2022-08-03T15:33:26.171Z,31.20
2022-08-03T15:35:57.074Z,31.20
2022-08-03T15:38:28.057Z,31.90
2022-08-03T15:40:59.776Z,31.80
2022-08-03T15:43:30.490Z,31.90
2022-08-03T15:46:28.178Z,33.10
2022-08-03T15:48:53.553Z,32.10
2022-08-03T15:51:24.237Z,32.20
2022-08-03T15:53:55.047Z,31.90
2022-08-03T15:56:27.180Z,31.90
2022-08-03T15:59:09.239Z,32.10
2022-08-03T16:01:45.489Z,32.50
2022-08-03T16:04:16.304Z,33.50
2022-08-03T16:06:47.005Z,33.80
2022-08-03T16:09:23.642Z,33.80
2022-08-03T16:12:16.095Z,33.10
2022-08-03T16:14:52.807Z,33.10
2022-08-03T16:17:25.894Z,31.50
2022-08-03T16:19:56.904Z,32.90
2022-08-03T16:22:27.885Z,33.70
2022-08-03T16:24:58.626Z,33.80
2022-08-03T16:27:37.189Z,32.30
2022-08-03T16:30:20.392Z,32.30
2022-08-03T16:32:52.825Z,33.70
2022-08-03T16:35:25.062Z,34.10
2022-08-03T16:37:56.785Z,33.50
2022-08-03T16:40:28.893Z,32.00
2022-08-03T16:42:59.631Z,32.00
2022-08-03T16:45:30.455Z,32.90
2022-08-03T16:48:05.479Z,32.70
2022-08-03T16:50:37.850Z,33.00
2022-08-03T16:53:09.807Z,34.00
2022-08-03T16:55:53.694Z,34.10
2022-08-03T16:58:41.359Z,34.20
2022-08-03T17:01:22.477Z,35.00
2022-08-03T17:04:03.589Z,35.20
2022-08-03T17:06:38.581Z,35.70
2022-08-03T17:09:18.079Z,36.00
2022-08-03T17:11:50.145Z,36.70
2022-08-03T17:14:23.454Z,36.00
2022-08-03T17:17:03.803Z,36.30
2022-08-03T17:19:37.824Z,35.90
2022-08-03T17:22:16.748Z,35.40
2022-08-03T17:24:49.835Z,35.20
2022-08-03T17:28:48.358Z,34.00
2022-08-03T17:30:18.918Z,34.30
2022-08-03T17:32:57.073Z,34.90
2022-08-03T17:35:34.475Z,35.00
2022-08-03T17:38:13.710Z,34.80
2022-08-03T17:40:49.983Z,35.20
2022-08-03T17:46:14.090Z,36.00
2022-08-03T17:48:44.896Z,35.40
2022-08-03T17:51:24.611Z,34.80
2022-08-03T17:54:04.605Z,35.00
2022-08-03T17:56:59.809Z,35.90
2022-08-03T17:59:58.295Z,34.90
2022-08-03T18:02:58.998Z,35.50
2022-08-03T18:06:11.407Z,35.10
2022-08-03T18:08:29.101Z,36.00
2022-08-03T18:11:14.988Z,36.20
2022-08-03T18:13:57.752Z,36.40
2022-08-03T18:16:36.049Z,36.50
2022-08-03T18:19:14.476Z,36.30
2022-08-03T18:22:03.479Z,36.40
2022-08-03T18:24:37.103Z,36.30
2022-08-03T18:27:08.856Z,36.40
2022-08-03T18:29:40.048Z,37.10
2022-08-03T18:32:21.889Z,35.80
2022-08-03T18:34:59.737Z,35.40
2022-08-03T18:37:32.139Z,34.40
2022-08-03T18:40:26.007Z,34.60
2022-08-03T18:42:59.191Z,34.40
2022-08-03T18:45:58.219Z,35.00
2022-08-03T18:48:35.099Z,35.90
2022-08-03T18:51:12.526Z,35.50
2022-08-03T18:54:07.449Z,35.30
2022-08-03T18:56:48.860Z,34.90
2022-08-03T18:59:30.046Z,35.50
2022-08-03T19:02:09.247Z,35.60
2022-08-03T19:04:47.260Z,35.50
2022-08-03T19:07:27.102Z,35.60
2022-08-03T19:10:11.563Z,35.30
2022-08-03T19:12:53.173Z,35.60
2022-08-03T19:15:36.173Z,36.10
2022-08-03T19:18:10.885Z,35.70
2022-08-03T19:20:42.656Z,35.70
2022-08-03T19:23:18.972Z,36.00
2022-08-03T19:25:50.855Z,35.80
2022-08-03T19:28:29.751Z,35.60
2022-08-03T19:31:06.418Z,35.40
2022-08-03T19:33:55.913Z,35.00
2022-08-03T19:36:29.912Z,35.40
2022-08-03T19:39:03.323Z,35.40
2022-08-03T19:41:42.315Z,35.60
2022-08-03T19:44:21.657Z,35.50
2022-08-03T19:46:57.320Z,35.40
2022-08-03T19:50:04.748Z,34.80
2022-08-03T19:52:24.545Z,34.60
2022-08-03T19:55:05.843Z,34.30
2022-08-03T19:57:38.197Z,33.80
2022-08-03T20:00:13.975Z,33.20
2022-08-03T20:02:45.129Z,32.70
2022-08-03T20:05:16.123Z,32.80
2022-08-03T20:10:38.356Z,32.40
2022-08-03T20:13:09.821Z,32.50
2022-08-03T20:15:43.587Z,32.80
2022-08-03T20:18:17.173Z,33.10
2022-08-03T20:20:51.356Z,33.20
2022-08-03T20:23:23.587Z,33.20
2022-08-03T20:26:00.022Z,33.00
2022-08-03T20:28:50.390Z,33.10
2022-08-03T20:31:32.632Z,33.00
2022-08-03T20:34:09.118Z,33.00
2022-08-03T20:36:40.009Z,33.00
2022-08-03T20:39:11.199Z,33.20
2022-08-03T20:41:43.455Z,33.30
2022-08-03T20:44:14.176Z,33.30
2022-08-03T20:46:52.916Z,33.20
2022-08-03T20:49:46.294Z,32.80
2022-08-03T20:52:18.434Z,32.40
2022-08-03T20:54:50.228Z,32.30
2022-08-03T20:57:22.733Z,32.50
2022-08-03T20:59:54.197Z,32.60
2022-08-03T21:02:30.232Z,32.80
2022-08-03T21:05:03.621Z,33.10
2022-08-03T21:08:03.686Z,32.90
2022-08-03T21:10:37.847Z,32.70
2022-08-03T21:12:54.884Z,35.70
2022-08-03T21:13:03.562Z,32.70
2022-08-03T21:13:17.828Z,32.60
2022-08-03T21:16:12.687Z,32.40
2022-08-03T21:18:48.049Z,32.30
2022-08-03T21:21:20.644Z,32.40
2022-08-03T21:23:53.696Z,32.40
2022-08-03T21:26:26.607Z,32.40
2022-08-03T21:28:59.058Z,32.10
2022-08-03T21:31:30.168Z,32.20
2022-08-03T21:34:05.063Z,32.30
2022-08-03T21:36:38.623Z,32.10
2022-08-03T21:39:11.300Z,31.90
2022-08-03T21:41:43.396Z,31.40
2022-08-03T21:44:14.373Z,31.60
2022-08-03T21:46:46.747Z,31.70
2022-08-03T21:50:04.515Z,32.00
2022-08-03T21:52:13.305Z,32.30
2022-08-03T21:54:45.766Z,32.20
2022-08-03T21:57:22.314Z,32.10
2022-08-03T21:59:57.434Z,32.50
2022-08-03T22:02:32.336Z,32.50
2022-08-03T22:05:06.076Z,32.70
2022-08-03T22:07:37.376Z,32.50
2022-08-03T22:10:09.426Z,32.60
2022-08-03T22:12:41.152Z,32.50
2022-08-03T22:15:13.869Z,32.50
2022-08-03T22:17:55.487Z,31.90
2022-08-03T22:20:30.150Z,31.80
2022-08-03T22:23:04.741Z,32.10
2022-08-03T22:25:37.093Z,32.30
2022-08-03T22:28:10.847Z,32.30
2022-08-03T22:30:43.016Z,32.30
2022-08-03T22:33:14.871Z,32.30
2022-08-03T22:35:48.971Z,32.20
2022-08-03T22:38:20.907Z,32.20
2022-08-03T22:40:52.191Z,32.30
2022-08-03T22:43:26.277Z,32.30
2022-08-03T22:46:10.539Z,32.30
2022-08-03T22:48:43.278Z,32.20
2022-08-03T22:51:17.008Z,32.10
2022-08-03T22:53:48.721Z,32.20
2022-08-03T22:56:19.432Z,32.10
2022-08-03T22:58:51.194Z,32.00
2022-08-03T23:01:25.670Z,32.10
2022-08-03T23:04:05.326Z,32.20
2022-08-03T23:06:39.943Z,32.20
2022-08-03T23:09:11.956Z,31.90
2022-08-03T23:11:45.784Z,31.70
2022-08-03T23:14:18.440Z,31.60
2022-08-03T23:16:53.168Z,31.50
2022-08-03T23:19:27.769Z,31.20
2022-08-03T23:22:06.652Z,31.10
2022-08-03T23:24:59.297Z,31.00
2022-08-03T23:27:31.008Z,30.80
2022-08-03T23:30:02.459Z,30.50
2022-08-03T23:32:34.167Z,30.10
2022-08-03T23:35:24.189Z,30.10
2022-08-03T23:38:22.164Z,29.90
2022-08-03T23:40:54.007Z,29.70
2022-08-03T23:43:51.621Z,29.40
2022-08-03T23:46:18.748Z,29.50
2022-08-03T23:48:49.501Z,29.50
2022-08-03T23:51:30.822Z,29.50
2022-08-03T23:54:18.071Z,29.50
2022-08-03T23:56:56.975Z,29.30
2022-08-03T23:59:33.807Z,29.40
